Time;durP1;ratioP1;P1;durP2;ratioP2;P2;SDS_P1;SDS_P2;PMS_P1;PMS_P2;Temp;Humidity;BMP_temperature;BMP_pressure;BME280_temperature;BME280_humidity;BME280_pressure;Samples;Min_cycle;Max_cycle;Signal;HPM_P1;HPM_P2
2022/05/19 07:43:43;;;;;;;;;;;;;;;;;;5760380;23;19927;-78
2022/05/19 08:16:59;;;;;;;;;;;;;;;;;;4957680;28;19925;-76
2022/05/19 08:19:25;;;;;;;;;;;;;;;;;;4976481;28;19914;-75
2022/05/19 08:21:50;;;;;;;;;;;;;;;;;;4976451;28;19918;-73
2022/05/19 08:24:15;;;;;;;;;;;;;;;;;;4976650;28;19914;-74
2022/05/19 08:26:41;;;;;;;;;;;;;;;;;;4976655;28;19910;-75
2022/05/19 08:29:06;;;;;;;;;;;;;;;;;;4976392;28;19980;-75
2022/05/19 08:31:31;;;;;;;;;;;;;;;;;;4976347;28;19965;-75
2022/05/19 08:33:58;;;;;;;5.53;3.40;;;;;;;;;;4975658;28;19941;-83
2022/05/19 08:36:25;;;;;;;4.28;3.25;;;;;;;;;;4975780;28;20023;-84
2022/05/19 08:38:50;;;;;;;4.95;3.63;;;;;;;;;;4975983;28;20023;-84
2022/05/19 08:41:27;;;;;;;9.00;3.30;;;;;;;;;;4976470;28;20528;-91
2022/05/19 08:44:22;;;;;;;5.75;3.30;;;;;;;;;;4958697;28;20034;-90
2022/05/19 08:46:50;;;;;;;4.05;3.75;;;;;;;;;;4938384;28;20047;-77
2022/05/19 08:49:19;;;;;;;4.82;3.28;;;;;;;;;;4958652;28;20026;-81
2022/05/19 08:51:56;;;;;;;5.38;3.95;;;;;;;;;;4975669;28;20461;-80
2022/05/19 08:54:24;;;;;;;5.85;3.58;;;;;;;;;;4975559;28;20550;-79
2022/05/19 08:57:01;;;;;;;6.93;3.42;;;;;;;;;;4975346;28;20393;-79
2022/05/19 08:59:35;;;;;;;4.63;3.60;;;;;;;;;;4975586;28;20073;-83
2022/05/19 09:02:13;;;;;;;4.18;3.70;;;;;;;;;;4975094;28;20073;-83
2022/05/19 09:05:03;;;;;;;4.28;3.50;;;;;;;;;;4975526;28;20074;-82
2022/05/19 09:07:59;;;;;;;5.82;3.75;;;;;;;;;;4975191;28;20465;-82
2022/05/19 09:10:53;;;;;;;4.68;3.30;;;;;;;;;;4976062;28;20042;-83
2022/05/19 09:13:24;;;;;;;6.88;3.75;;;;;;;;;;4974988;28;20034;-81
2022/05/19 09:15:52;;;;;;;4.15;3.10;;;;;;;;;;4974900;28;20050;-82
2022/05/19 09:18:34;;;;;;;5.60;3.17;;;;;;;;;;4975125;28;20026;-84
2022/05/19 09:21:02;;;;;;;5.80;3.60;;;;;;;;;;4975272;28;20126;-84
2022/05/19 09:23:28;;;;;;;3.50;2.70;;;;;;;;;;4957508;28;20500;-84
2022/05/19 09:26:01;;;;;;;7.85;3.95;;;;;;;;;;4975224;28;20034;-85
2022/05/19 09:28:27;;;;;;;4.85;3.17;;;;;;;;;;4975098;28;20400;-86
2022/05/19 09:30:55;;;;;;;3.55;2.97;;;;;;;;;;4975217;28;20027;-85
2022/05/19 09:33:29;;;;;;;5.18;3.53;;;;;;;;;;4974941;28;20023;-85
2022/05/19 09:35:55;;;;;;;4.85;3.20;;;;;;;;;;4974971;28;20109;-84
2022/05/19 09:38:42;;;;;;;6.53;3.10;;;;;;;;;;4974866;28;20065;-85
2022/05/19 09:41:22;;;;;;;6.40;3.08;;;;;;;;;;4975296;28;20041;-85
2022/05/19 09:43:56;;;;;;;4.13;3.08;;;;;;;;;;4974722;28;20058;-85
2022/05/19 09:46:22;;;;;;;3.47;2.63;;;;;;;;;;4974649;28;20075;-84
2022/05/19 09:49:02;;;;;;;3.35;2.83;;;;;;;;;;4974687;28;20031;-83
2022/05/19 09:51:49;;;;;;;3.83;2.70;;;;;;;;;;4974725;28;20109;-84
2022/05/19 09:54:15;;;;;;;7.45;3.10;;;;;;;;;;4974811;28;20389;-84
2022/05/19 09:56:46;;;;;;;4.95;2.90;;;;;;;;;;4957373;28;20023;-85
2022/05/19 09:59:35;;;;;;;8.07;3.35;;;;;;;;;;4978232;28;20073;-84
2022/05/19 10:02:11;;;;;;;3.67;2.55;;;;;;;;;;4978485;28;20027;-84
2022/05/19 10:04:40;;;;;;;4.30;2.60;;;;;;;;;;4978627;28;20030;-84
2022/05/19 10:07:17;;;;;;;;;;;;;;;;;;4979138;28;20047;-84
2022/05/19 10:09:46;;;;;;;8.93;3.55;;;;;;;;;;4978542;28;19917;-84
2022/05/19 10:12:13;;;;;;;;;;;;;;;;;;4978654;28;20034;-85
2022/05/19 10:14:40;;;;;;;3.90;2.80;;;;;;;;;;4978454;28;19921;-86
2022/05/19 10:17:42;;;;;;;8.77;3.35;;;;;;;;;;4978243;28;20064;-85
2022/05/19 10:20:16;;;;;;;5.07;2.88;;;;;;;;;;4978785;28;20023;-86
2022/05/19 10:23:07;;;;;;;6.30;2.90;;;;;;;;;;4978028;28;20473;-86
2022/05/19 10:25:44;;;;;;;4.80;2.58;;;;;;;;;;4978239;28;20053;-86
2022/05/19 10:31:18;;;;;;;4.65;2.72;;;;;;;;;;4978442;28;20055;-85
2022/05/19 10:34:21;;;;;;;5.53;2.55;;;;;;;;;;4978065;28;20023;-84
2022/05/19 10:37:17;;;;;;;2.90;2.60;;;;;;;;;;4957018;28;20042;-85
2022/05/19 10:39:55;;;;;;;4.93;3.00;;;;;;;;;;4950396;28;20082;-84
2022/05/19 10:42:31;;;;;;;3.88;2.80;;;;;;;;;;4977750;28;20027;-85
2022/05/19 10:45:15;;;;;;;3.53;2.72;;;;;;;;;;4977943;28;20031;-85
2022/05/19 10:48:19;;;;;;;4.10;2.75;;;;;;;;;;4977978;28;20524;-84
2022/05/19 10:50:52;;;;;;;3.45;2.75;;;;;;;;;;4940732;28;20090;-84
2022/05/19 10:53:35;;;;;;;5.00;2.53;;;;;;;;;;4977652;28;20032;-86
2022/05/19 10:56:19;;;;;;;5.95;3.20;;;;;;;;;;4977216;28;20037;-88
2022/05/19 10:59:03;;;;;;;6.05;3.13;;;;;;;;;;4977508;28;20021;-88
2022/05/19 11:02:00;;;;;;;5.43;3.15;;;;;;;;;;4977772;28;20381;-84
2022/05/19 11:04:38;;;;;;;6.45;2.90;;;;;;;;;;4928721;28;20390;-84
2022/05/19 11:07:31;;;;;;;2.70;2.50;;;;;;;;;;4977379;28;20110;-84
2022/05/19 11:10:04;;;;;;;4.88;2.83;;;;;;;;;;4977078;28;20081;-84
2022/05/19 11:13:03;;;;;;;5.03;2.58;;;;;;;;;;4977155;28;20018;-85
2022/05/19 11:16:06;;;;;;;5.28;2.80;;;;;;;;;;4977222;28;20034;-84
2022/05/19 11:18:48;;;;;;;4.60;3.00;;;;;;;;;;4977164;28;20418;-84
2022/05/19 11:21:35;;;;;;;4.53;3.00;;;;;;;;;;4977380;28;20027;-84
2022/05/19 11:24:06;;;;;;;4.07;2.83;;;;;;;;;;4977226;28;20037;-84
2022/05/19 11:26:38;;;;;;;7.38;3.67;;;;;;;;;;4973590;28;20035;-83
2022/05/19 11:29:06;;;;;;;4.40;2.83;;;;;;;;;;4977833;28;20031;-84
2022/05/19 11:31:54;;;;;;;7.38;3.60;;;;;;;;;;4977536;28;20098;-84
2022/05/19 11:34:45;;;;;;;8.60;3.60;;;;;;;;;;4976809;28;20114;-87
2022/05/19 11:37:35;;;;;;;5.57;3.53;;;;;;;;;;4959722;28;20466;-86
2022/05/19 11:40:06;;;;;;;3.22;2.92;;;;;;;;;;4976922;28;20030;-86
2022/05/19 11:43:03;;;;;;;6.50;4.20;;;;;;;;;;4959301;28;20046;-87
2022/05/19 16:40:44;;;;;;;6.15;5.55;;;;;;;;;;5121739;23;20491;-89
2022/05/19 16:43:10;;;;;;;7.57;5.38;;;;;;;;;;4937648;29;20123;-87
2022/05/19 16:45:36;;;;;;;5.22;3.60;;;;;;;;;;4937471;29;20030;-93
2022/05/19 16:48:03;;;;;;;8.45;4.03;;;;;;;;;;4938180;29;20027;-92
2022/05/19 16:50:29;;;;;;;6.10;3.70;;;;;;;;;;4919992;29;20027;-88
2022/05/19 16:52:55;;;;;;;5.40;4.03;;;;;;;;;;4937251;29;20073;-92
2022/05/19 16:58:07;;;;;;;4.18;3.88;;;;;;;;;;4937110;29;20038;-85
2022/05/19 17:00:36;;;;;;;5.65;4.40;;;;;;;;;;4937251;29;20058;-86
2022/05/19 17:03:01;;;;;;;7.80;4.70;;;;;;;;;;4937011;29;20047;-87
2022/05/19 17:05:29;;;;;;;4.15;3.70;;;;;;;;;;4936480;29;20027;-88
2022/05/19 17:07:57;;;;;;;5.28;3.85;;;;;;;;;;4937462;29;20067;-86
2022/05/19 17:10:24;;;;;;;7.43;4.20;;;;;;;;;;4936964;29;20027;-85
2022/05/19 17:12:52;;;;;;;6.97;4.32;;;;;;;;;;4937174;29;20034;-87
2022/05/19 17:15:19;;;;;;;4.57;3.20;;;;;;;;;;4936932;29;20063;-88
2022/05/19 17:17:47;;;;;;;6.25;4.13;;;;;;;;;;4936663;29;20027;-88
2022/05/19 17:20:14;;;;;;;5.32;4.30;;;;;;;;;;4937101;29;20050;-88
2022/05/19 17:22:46;;;;;;;4.35;3.92;;;;;;;;;;4936804;29;20031;-88
2022/05/19 17:25:14;;;;;;;6.82;3.60;;;;;;;;;;4919572;29;20028;-88
2022/05/19 17:27:41;;;;;;;3.80;3.50;;;;;;;;;;4936616;29;20414;-89
2022/05/19 17:30:07;;;;;;;5.97;3.90;;;;;;;;;;4936833;29;20483;-85
2022/05/19 17:32:33;;;;;;;4.75;4.22;;;;;;;;;;4936071;29;20123;-85
2022/05/19 17:34:58;;;;;;;4.70;4.07;;;;;;;;;;4936674;29;20114;-86
2022/05/19 17:37:25;;;;;;;6.90;4.10;;;;;;;;;;4936372;29;20035;-84
2022/05/19 17:39:51;;;;;;;6.88;4.00;;;;;;;;;;4936520;29;20462;-84
2022/05/19 17:42:18;;;;;;;7.15;4.15;;;;;;;;;;4936232;29;20147;-86
2022/05/19 17:44:44;;;;;;;7.78;4.45;;;;;;;;;;4936312;29;20028;-87
2022/05/19 17:47:09;;;;;;;6.93;4.20;;;;;;;;;;4936534;29;20085;-89
2022/05/19 17:49:35;;;;;;;7.25;4.50;;;;;;;;;;4936425;29;20035;-87
2022/05/19 17:52:01;;;;;;;4.88;4.40;;;;;;;;;;4936734;29;20375;-88
2022/05/19 17:54:28;;;;;;;5.57;4.43;;;;;;;;;;4936161;29;20106;-87
2022/05/19 17:56:53;;;;;;;8.13;4.97;;;;;;;;;;4936427;29;20032;-89
2022/05/19 17:59:19;;;;;;;4.93;3.63;;;;;;;;;;4936350;29;20083;-88
2022/05/19 18:01:46;;;;;;;4.88;3.75;;;;;;;;;;4919315;29;20467;-88
2022/05/19 18:04:12;;;;;;;7.65;4.38;;;;;;;;;;4919246;29;20495;-88
2022/05/19 18:06:41;;;;;;;7.05;4.85;;;;;;;;;;4936791;29;20055;-86
2022/05/19 18:09:08;;;;;;;9.13;6.55;;;;;;;;;;4941771;29;20038;-86
2022/05/19 18:11:33;;;;;;;7.22;5.63;;;;;;;;;;4936031;29;20032;-85
2022/05/19 18:13:59;;;;;;;7.85;4.63;;;;;;;;;;4919331;29;20091;-85
2022/05/19 20:49:21;;;;;;;6.90;4.28;;;;;;;;;;5217932;23;20397;-85
2022/05/19 20:51:46;;;;;;;6.03;4.30;;;;;;;;;;4983069;28;20050;-85
2022/05/19 20:54:13;;;;;;;6.70;4.45;;;;;;;;;;4958213;28;20024;-86
2022/05/19 20:56:40;;;;;;;5.13;4.28;;;;;;;;;;4975321;28;20082;-83
2022/05/19 20:59:06;;;;;;;8.18;4.10;;;;;;;;;;4975371;28;20496;-84
2022/05/19 21:01:32;;;;;;;5.18;4.40;;;;;;;;;;4975352;28;20140;-81
2022/05/19 21:03:57;;;;;;;4.53;4.13;;;;;;;;;;4975504;28;20035;-83
2022/05/19 21:06:24;;;;;;;6.07;4.60;;;;;;;;;;4975590;28;20385;-84
2022/05/19 21:08:50;;;;;;;4.88;4.40;;;;;;;;;;4975158;28;20026;-84
2022/05/19 21:11:16;;;;;;;5.53;4.07;;;;;;;;;;4969686;28;20401;-84
2022/05/19 21:13:41;;;;;;;6.45;4.47;;;;;;;;;;4960815;28;20046;-84
2022/05/19 21:16:08;;;;;;;6.75;4.38;;;;;;;;;;4938553;29;20387;-83
2022/05/19 21:18:35;;;;;;;10.43;4.57;;;;;;;;;;4955882;29;20024;-83
2022/05/19 21:21:01;;;;;;;5.93;5.40;;;;;;;;;;4956271;29;20031;-84
2022/05/19 21:26:10;;;;;;;9.63;5.30;;;;;;;;;;4971355;28;20057;-84
2022/05/19 21:28:37;;;;;;;6.30;5.05;;;;;;;;;;4975095;28;20082;-85
2022/05/19 21:31:03;;;;;;;6.05;4.80;;;;;;;;;;4975259;28;20019;-82
2022/05/19 21:33:29;;;;;;;5.25;4.75;;;;;;;;;;4974954;28;20041;-85
2022/05/19 21:35:55;;;;;;;6.00;4.88;;;;;;;;;;4974817;28;20030;-84
2022/05/19 21:38:20;;;;;;;5.45;4.82;;;;;;;;;;4975175;28;20034;-84
2022/05/19 21:40:46;;;;;;;6.05;5.18;;;;;;;;;;4974937;28;20037;-84
2022/05/19 21:43:13;;;;;;;6.47;4.95;;;;;;;;;;4974655;28;20034;-84
2022/05/19 21:45:40;;;;;;;5.30;4.80;;;;;;;;;;4975023;28;20022;-85
2022/05/19 21:48:07;;;;;;;5.97;4.30;;;;;;;;;;4974893;28;20374;-85
2022/05/19 21:50:32;;;;;;;6.85;4.95;;;;;;;;;;4974668;28;20042;-85
2022/05/19 21:55:44;;;;;;;5.90;4.07;;;;;;;;;;4974941;28;20078;-84
2022/05/19 21:58:11;;;;;;;6.47;4.57;;;;;;;;;;4967061;28;20031;-84
2022/05/19 22:00:52;;;;;;;6.53;4.65;;;;;;;;;;4962226;28;20390;-84
2022/05/19 22:03:23;;;;;;;7.45;4.40;;;;;;;;;;4955317;28;20446;-87
2022/05/19 22:08:39;;;;;;;5.20;4.43;;;;;;;;;;4955651;28;20102;-86
2022/05/19 22:11:10;;;;;;;6.13;4.68;;;;;;;;;;4955205;28;20106;-86
2022/05/19 22:13:35;;;;;;;5.30;4.75;;;;;;;;;;4955428;28;20040;-86
2022/05/19 22:16:02;;;;;;;4.97;4.50;;;;;;;;;;4955188;29;20082;-86
2022/05/19 22:18:28;;;;;;;5.68;4.65;;;;;;;;;;4955346;29;20521;-86
2022/05/19 22:20:53;;;;;;;5.53;4.13;;;;;;;;;;4955148;28;20054;-86
2022/05/19 22:23:19;;;;;;;5.05;4.57;;;;;;;;;;4955489;29;20470;-87
2022/05/19 22:25:45;;;;;;;5.40;4.90;;;;;;;;;;4955205;28;20047;-86
2022/05/19 22:28:10;;;;;;;6.20;4.80;;;;;;;;;;4955276;28;20030;-86
2022/05/19 22:30:36;;;;;;;6.05;5.10;;;;;;;;;;4955292;29;20035;-86
2022/05/19 22:33:01;;;;;;;7.40;4.80;;;;;;;;;;4955551;28;20032;-87
2022/05/19 22:35:27;;;;;;;6.78;4.63;;;;;;;;;;4955026;28;20035;-86
2022/05/19 22:37:52;;;;;;;6.50;4.60;;;;;;;;;;4955007;29;20470;-86
2022/05/19 22:40:18;;;;;;;5.05;4.50;;;;;;;;;;4955145;29;20034;-86
2022/05/19 22:42:44;;;;;;;6.22;4.70;;;;;;;;;;4938087;29;20031;-86
2022/05/19 22:45:11;;;;;;;6.45;5.13;;;;;;;;;;4955007;29;20551;-86
2022/05/19 22:47:37;;;;;;;4.85;4.30;;;;;;;;;;4954881;29;20103;-86
2022/05/19 22:50:11;;;;;;;7.30;4.40;;;;;;;;;;4954999;29;20176;-86
2022/05/19 22:52:38;;;;;;;4.95;4.45;;;;;;;;;;4955169;29;20529;-86
2022/05/19 22:55:04;;;;;;;5.95;4.43;;;;;;;;;;4955055;29;20363;-86
2022/05/19 22:57:30;;;;;;;6.55;4.68;;;;;;;;;;4954711;29;20498;-86
2022/05/19 22:59:55;;;;;;;5.32;4.82;;;;;;;;;;4937867;29;20041;-87
2022/05/19 23:02:21;;;;;;;7.20;4.90;;;;;;;;;;4954800;28;20070;-86
2022/05/19 23:04:47;;;;;;;5.50;4.70;;;;;;;;;;4938578;28;20035;-86
2022/05/19 23:07:12;;;;;;;5.80;4.50;;;;;;;;;;4958333;29;20485;-86
2022/05/19 23:09:37;;;;;;;5.22;4.28;;;;;;;;;;4958124;28;20035;-86
2022/05/19 23:12:05;;;;;;;6.63;4.53;;;;;;;;;;4958297;29;20027;-86
2022/05/19 23:14:30;;;;;;;4.47;4.05;;;;;;;;;;4958079;29;20476;-86
2022/05/19 23:16:58;;;;;;;4.63;4.05;;;;;;;;;;4957959;28;20066;-86
2022/05/19 23:19:28;;;;;;;7.53;4.70;;;;;;;;;;4958356;29;20027;-86
2022/05/19 23:21:53;;;;;;;6.03;4.38;;;;;;;;;;4958020;29;20031;-86
2022/05/19 23:24:19;;;;;;;5.28;4.78;;;;;;;;;;4957910;28;20133;-87
2022/05/19 23:26:44;;;;;;;4.60;4.20;;;;;;;;;;4958091;29;20027;-86
2022/05/19 23:29:10;;;;;;;5.15;4.68;;;;;;;;;;4957751;28;20030;-86
2022/05/19 23:31:36;;;;;;;6.63;4.88;;;;;;;;;;4957635;29;20025;-86
2022/05/19 23:34:01;;;;;;;6.47;4.88;;;;;;;;;;4958031;29;20031;-85
2022/05/19 23:36:27;;;;;;;4.97;4.50;;;;;;;;;;4957775;28;20034;-85
2022/05/19 23:38:52;;;;;;;5.40;4.63;;;;;;;;;;4957913;29;20034;-86
2022/05/19 23:41:19;;;;;;;7.03;4.13;;;;;;;;;;4957571;29;20463;-87
2022/05/19 23:43:44;;;;;;;8.20;4.88;;;;;;;;;;4957868;28;20035;-86
2022/05/19 23:46:11;;;;;;;6.40;4.45;;;;;;;;;;4957671;29;20027;-86
2022/05/19 23:48:37;;;;;;;5.30;4.78;;;;;;;;;;4957642;28;20031;-86
2022/05/19 23:51:10;;;;;;;7.63;4.65;;;;;;;;;;4957459;29;20043;-86
2022/05/19 23:53:36;;;;;;;9.77;4.55;;;;;;;;;;4957443;28;20359;-86
2022/05/19 23:56:01;;;;;;;5.15;4.32;;;;;;;;;;4957479;29;20031;-86
2022/05/19 23:58:28;;;;;;;5.53;4.22;;;;;;;;;;4957179;29;20027;-86
